createdAt,value
2019-03-08T00:02:52.493Z,96784.34
2019-03-08T00:06:57.560Z,96785.00
2019-03-08T00:11:02.434Z,96796.88
2019-03-08T00:15:10.167Z,96802.93
2019-03-08T00:19:15.069Z,96798.87
2019-03-08T00:23:19.955Z,96809.73
2019-03-08T00:27:24.837Z,96816.80
2019-03-08T00:31:29.732Z,96828.57
2019-03-08T00:35:34.617Z,96850.91
2019-03-08T00:39:39.505Z,96847.20
2019-03-08T00:43:44.403Z,96854.52
2019-03-08T00:47:49.284Z,96856.95
2019-03-08T00:51:54.169Z,96855.22
2019-03-08T00:55:59.058Z,96850.88
2019-03-08T01:00:13.047Z,96852.05
2019-03-08T01:04:19.026Z,96850.39
2019-03-08T01:08:23.890Z,96854.41
2019-03-08T01:12:28.777Z,96857.31
2019-03-08T01:16:33.832Z,96858.48
2019-03-08T01:20:38.723Z,96856.42
2019-03-08T01:24:43.609Z,96874.04
2019-03-08T01:28:48.483Z,96858.73
2019-03-08T01:32:53.371Z,96874.74
2019-03-08T01:36:58.264Z,96877.04
2019-03-08T01:41:03.158Z,96873.70
2019-03-08T01:45:08.322Z,96883.86
2019-03-08T01:49:13.202Z,96883.95
2019-03-08T01:53:18.096Z,96885.77
2019-03-08T01:57:22.991Z,96888.56
2019-03-08T02:01:27.877Z,96890.31
2019-03-08T02:05:32.759Z,96900.78
2019-03-08T02:09:37.640Z,96897.67
2019-03-08T02:13:42.620Z,96904.97
2019-03-08T02:17:47.573Z,96891.11
2019-03-08T02:21:52.469Z,96887.97
2019-03-08T02:25:57.366Z,96884.66
2019-03-08T02:30:02.258Z,96890.82
2019-03-08T02:34:08.211Z,96890.51
2019-03-08T02:38:13.112Z,96885.30
2019-03-08T02:42:18.279Z,96891.02
2019-03-08T02:46:23.170Z,96891.56
2019-03-08T02:50:28.050Z,96898.06
2019-03-08T02:54:34.454Z,96899.77
2019-03-08T02:58:39.408Z,96893.77
2019-03-08T03:02:44.302Z,96893.82
2019-03-08T03:06:49.182Z,96900.92
2019-03-08T03:10:54.090Z,96891.56
2019-03-08T03:14:58.981Z,96900.27
2019-03-08T03:19:03.940Z,96909.52
2019-03-08T03:23:08.829Z,96899.81
2019-03-08T03:27:13.723Z,96913.67
2019-03-08T03:31:18.610Z,96908.13
2019-03-08T03:35:23.491Z,96917.75
2019-03-08T03:39:28.385Z,96926.95
2019-03-08T03:43:33.276Z,96930.39
2019-03-08T03:47:38.163Z,96930.73
2019-03-08T03:51:43.052Z,96937.16
2019-03-08T03:55:47.945Z,96955.88
2019-03-08T03:59:52.839Z,96954.18
2019-03-08T04:03:57.724Z,96966.89
2019-03-08T04:08:02.608Z,96962.41
2019-03-08T04:12:07.508Z,96960.25
2019-03-08T04:16:12.386Z,96957.70
2019-03-08T04:20:21.452Z,96968.45
2019-03-08T04:24:26.357Z,96970.26
2019-03-08T04:28:31.511Z,96982.16
2019-03-08T04:32:36.403Z,96984.30
2019-03-08T04:36:41.291Z,96980.16
2019-03-08T04:40:46.178Z,96991.73
2019-03-08T04:44:51.072Z,97000.20
2019-03-08T04:48:55.956Z,97011.27
2019-03-08T04:53:00.843Z,97015.03
2019-03-08T04:57:06.006Z,97023.90
2019-03-08T05:01:10.900Z,97031.78
2019-03-08T05:05:15.867Z,97047.97
2019-03-08T05:09:20.746Z,97055.98
2019-03-08T05:13:25.634Z,97069.16
2019-03-08T05:17:30.526Z,97066.36
2019-03-08T05:21:35.423Z,97074.81
2019-03-08T05:25:40.593Z,97081.97
2019-03-08T05:29:45.465Z,97087.04
2019-03-08T05:33:50.354Z,97089.00
2019-03-08T05:37:55.248Z,97079.51
2019-03-08T05:42:00.137Z,97081.46
2019-03-08T05:46:05.027Z,97090.13
2019-03-08T05:50:11.926Z,97099.74
2019-03-08T05:54:17.183Z,97092.13
2019-03-08T05:58:22.072Z,97104.48
2019-03-08T06:02:26.960Z,97116.74
2019-03-08T06:06:31.853Z,97118.95
2019-03-08T06:10:37.673Z,97127.16
2019-03-08T06:14:42.572Z,97136.34
2019-03-08T06:18:47.477Z,97130.81
2019-03-08T06:22:52.357Z,97138.43
2019-03-08T06:26:57.247Z,97150.89
2019-03-08T06:31:02.406Z,97161.95
2019-03-08T06:35:07.806Z,97165.34
2019-03-08T06:39:12.698Z,97167.05
2019-03-08T06:43:17.588Z,97180.73
2019-03-08T06:47:22.485Z,97195.44
2019-03-08T06:51:28.431Z,97201.57
2019-03-08T06:55:33.326Z,97207.39
2019-03-08T06:59:40.037Z,97202.50
2019-03-08T07:03:44.926Z,97219.92
2019-03-08T07:07:49.820Z,97231.93
2019-03-08T07:11:54.696Z,97243.70
2019-03-08T07:15:59.589Z,97256.95
2019-03-08T07:20:07.758Z,97271.02
2019-03-08T07:24:30.552Z,97274.42
2019-03-08T07:28:46.199Z,97284.86
2019-03-08T07:32:55.750Z,97297.16
2019-03-08T07:37:17.106Z,97307.01
2019-03-08T07:41:23.652Z,97316.49
2019-03-08T07:45:36.126Z,97330.14
2019-03-08T07:50:01.119Z,97344.03
2019-03-08T07:54:11.659Z,97351.20
2019-03-08T07:58:34.572Z,97355.63
2019-03-08T08:02:46.802Z,97365.35
2019-03-08T08:06:53.335Z,97374.29
2019-03-08T08:11:16.230Z,97376.47
2019-03-08T08:15:39.000Z,97383.78
2019-03-08T08:19:48.295Z,97391.85
2019-03-08T08:23:54.837Z,97402.20
2019-03-08T08:28:01.374Z,97406.26
2019-03-08T08:32:10.901Z,97416.40
2019-03-08T08:36:29.507Z,97421.45
2019-03-08T08:40:52.482Z,97422.86
2019-03-08T08:45:17.318Z,97441.48
2019-03-08T08:49:33.101Z,97453.55
2019-03-08T08:53:51.486Z,97453.94
2019-03-08T08:58:00.675Z,97468.03
2019-03-08T09:02:08.248Z,97485.32
2019-03-08T09:06:20.707Z,97495.69
2019-03-08T09:10:43.402Z,97505.42
2019-03-08T09:15:05.203Z,97516.23
2019-03-08T09:19:37.874Z,97530.53
2019-03-08T09:23:44.719Z,97544.86
2019-03-08T09:27:53.918Z,97558.73
2019-03-08T09:32:06.404Z,97582.14
2019-03-08T09:36:19.028Z,97590.72
2019-03-08T09:40:31.506Z,97595.11
2019-03-08T09:44:40.901Z,97603.70
2019-03-08T09:48:53.695Z,97602.07
2019-03-08T09:53:15.486Z,97612.38
2019-03-08T09:57:38.279Z,97612.91
2019-03-08T10:01:53.728Z,97613.89
2019-03-08T10:06:09.828Z,97621.80
2019-03-08T10:10:16.356Z,97629.67
2019-03-08T10:14:34.688Z,97630.84
2019-03-08T10:18:41.220Z,97631.78
2019-03-08T10:22:50.489Z,97638.39
2019-03-08T10:26:57.034Z,97638.09
2019-03-08T10:31:09.255Z,97644.52
2019-03-08T10:35:24.497Z,97649.26
2019-03-08T10:39:47.401Z,97666.45
2019-03-08T10:43:56.862Z,97694.45
2019-03-08T10:48:06.329Z,97699.31
2019-03-08T10:52:17.582Z,97699.08
2019-03-08T10:56:21.102Z,97702.41
2019-03-08T11:00:27.652Z,97710.27
2019-03-08T11:04:50.501Z,97710.50
2019-03-08T11:09:13.282Z,97725.22
2019-03-08T11:13:19.810Z,97731.73
2019-03-08T11:17:29.040Z,97734.29
2019-03-08T11:21:38.471Z,97744.33
2019-03-08T11:25:45.006Z,97738.59
2019-03-08T11:30:00.625Z,97736.20
2019-03-08T11:34:07.161Z,97742.47
2019-03-08T11:38:16.414Z,97744.63
2019-03-08T11:42:22.941Z,97749.95
2019-03-08T11:46:32.660Z,97746.36
2019-03-08T11:50:57.573Z,97753.03
2019-03-08T11:55:18.941Z,97752.97
2019-03-08T11:59:28.143Z,97756.11
2019-03-08T12:03:34.678Z,97771.16
2019-03-08T12:07:41.195Z,97769.19
2019-03-08T12:11:59.666Z,97770.23
2019-03-08T12:16:08.882Z,97765.37
2019-03-08T12:20:33.808Z,97770.55
2019-03-08T12:24:40.346Z,97776.09
2019-03-08T12:28:50.120Z,97782.22
2019-03-08T12:33:11.973Z,97785.44
2019-03-08T12:37:27.276Z,97786.95
2019-03-08T12:41:36.733Z,97785.67
2019-03-08T12:45:55.471Z,97797.67
2019-03-08T12:50:11.222Z,97790.80
2019-03-08T12:54:23.749Z,97784.52
2019-03-08T12:58:40.452Z,97786.82
2019-03-08T13:02:46.996Z,97787.66
2019-03-08T13:06:56.471Z,97794.61
2019-03-08T13:11:01.392Z,97793.47
2019-03-08T13:15:14.888Z,97793.48
2019-03-08T13:19:19.824Z,97796.25
2019-03-08T13:23:24.715Z,97804.06
2019-03-08T13:27:29.616Z,97805.74
2019-03-08T13:31:34.514Z,97802.93
2019-03-08T13:35:39.414Z,97801.62
2019-03-08T13:39:44.318Z,97797.13
2019-03-08T13:43:49.215Z,97794.88
2019-03-08T13:47:54.117Z,97802.33
2019-03-08T13:51:59.023Z,97810.12
2019-03-08T13:56:03.989Z,97816.51
2019-03-08T14:00:11.947Z,97825.94
2019-03-08T14:04:16.841Z,97835.77
2019-03-08T14:08:21.762Z,97829.05
2019-03-08T14:12:26.661Z,97820.09
2019-03-08T14:16:31.573Z,97821.44
2019-03-08T14:20:36.759Z,97818.97
2019-03-08T14:24:41.650Z,97816.45
2019-03-08T14:28:46.539Z,97815.09
2019-03-08T14:32:51.453Z,97817.99
2019-03-08T14:36:56.348Z,97825.92
2019-03-08T14:41:05.813Z,97822.36
2019-03-08T14:45:13.177Z,97827.27
2019-03-08T14:49:19.301Z,97832.66
2019-03-08T14:53:28.507Z,97829.18
2019-03-08T14:57:31.282Z,97826.34
2019-03-08T15:01:39.916Z,97831.78
2019-03-08T15:05:44.294Z,97818.55
2019-03-08T15:09:49.192Z,97823.95
2019-03-08T15:13:58.095Z,97825.44
2019-03-08T15:18:00.698Z,97814.61
2019-03-08T15:22:05.871Z,97813.04
2019-03-08T15:26:10.762Z,97815.48
2019-03-08T15:30:17.769Z,97825.66
2019-03-08T15:34:22.668Z,97829.33
2019-03-08T15:38:27.639Z,97826.00
2019-03-08T15:42:36.284Z,97831.92
2019-03-08T15:46:39.408Z,97830.23
2019-03-08T15:50:46.669Z,97838.38
2019-03-08T15:54:50.899Z,97841.25
2019-03-08T15:58:55.795Z,97850.16
2019-03-08T16:03:00.871Z,97850.56
2019-03-08T16:07:05.792Z,97846.50
2019-03-08T16:11:10.693Z,97849.96
2019-03-08T16:15:15.944Z,97847.88
2019-03-08T16:19:24.400Z,97837.48
2019-03-08T16:23:27.427Z,97849.36
2019-03-08T16:27:32.918Z,97851.31
2019-03-08T16:31:39.415Z,97851.99
2019-03-08T16:35:48.780Z,97859.28
2019-03-08T16:40:03.999Z,97871.33
2019-03-08T16:44:10.304Z,97876.30
2019-03-08T16:48:22.753Z,97882.18
2019-03-08T16:52:29.044Z,97892.73
2019-03-08T16:56:35.584Z,97893.90
2019-03-08T17:00:47.819Z,97890.73
2019-03-08T17:05:00.347Z,97886.53
2019-03-08T17:09:09.927Z,97906.64
2019-03-08T17:13:20.047Z,97892.54
2019-03-08T17:17:32.501Z,97898.63
2019-03-08T17:21:45.120Z,97899.17
2019-03-08T17:26:10.001Z,97906.31
2019-03-08T17:30:21.502Z,97909.81
2019-03-08T17:34:28.034Z,97910.91
2019-03-08T17:38:43.439Z,97914.53
2019-03-08T17:43:08.265Z,97921.42
2019-03-08T17:47:24.110Z,97917.66
2019-03-08T17:51:46.687Z,97919.27
2019-03-08T17:55:55.911Z,97914.83
2019-03-08T18:00:08.424Z,97915.84
2019-03-08T18:04:27.001Z,97927.47
2019-03-08T18:08:33.525Z,97921.16
2019-03-08T18:12:42.930Z,97937.76
2019-03-08T18:16:49.464Z,97947.69
2019-03-08T18:20:57.068Z,97957.73
2019-03-08T18:25:06.532Z,97950.94
2019-03-08T18:29:18.745Z,97933.97
2019-03-08T18:33:37.259Z,97915.28
2019-03-08T18:37:46.467Z,97912.14
2019-03-08T18:42:02.015Z,97908.61
2019-03-08T18:46:11.498Z,97910.47
2019-03-08T18:50:18.040Z,97936.80
2019-03-08T18:54:30.506Z,97935.49
2019-03-08T18:58:51.762Z,97930.05
2019-03-08T19:03:16.445Z,97934.27
2019-03-08T19:07:31.598Z,97929.77
2019-03-08T19:11:40.804Z,97925.07
2019-03-08T19:15:47.344Z,97941.09
2019-03-08T19:19:53.862Z,97941.81
2019-03-08T19:24:00.401Z,97949.19
2019-03-08T19:28:23.071Z,97947.54
2019-03-08T19:32:47.686Z,97948.77
2019-03-08T19:36:54.222Z,97942.53
2019-03-08T19:41:12.823Z,97944.14
2019-03-08T19:45:25.223Z,97944.14
2019-03-08T19:49:34.848Z,97947.67
2019-03-08T19:53:50.389Z,97942.49
2019-03-08T19:57:59.596Z,97946.03
2019-03-08T20:02:21.139Z,97952.16
2019-03-08T20:06:30.724Z,97944.28
2019-03-08T20:10:53.499Z,97933.85
2019-03-08T20:15:01.107Z,97936.77
2019-03-08T20:19:07.714Z,97946.75
2019-03-08T20:23:14.257Z,97938.55
2019-03-08T20:27:20.795Z,97940.67
2019-03-08T20:31:28.392Z,97942.05
2019-03-08T20:35:40.803Z,97941.53
2019-03-08T20:39:53.004Z,97928.91
2019-03-08T20:44:03.599Z,97919.75
2019-03-08T20:48:08.493Z,97913.64
2019-03-08T20:52:13.379Z,97911.86
2019-03-08T20:56:18.264Z,97911.06
2019-03-08T21:00:23.160Z,97907.61
2019-03-08T21:04:28.139Z,97912.27
2019-03-08T21:08:33.002Z,97901.77
2019-03-08T21:12:37.888Z,97903.89
2019-03-08T21:16:42.770Z,97893.42
2019-03-08T21:20:47.664Z,97894.59
2019-03-08T21:24:52.555Z,97897.45
2019-03-08T21:28:57.446Z,97888.03
2019-03-08T21:33:02.324Z,97885.98
2019-03-08T21:37:07.373Z,97904.31
2019-03-08T21:41:13.231Z,97909.53
2019-03-08T21:45:18.192Z,97914.81
2019-03-08T21:49:23.084Z,97905.28
2019-03-08T21:53:27.972Z,97897.59
2019-03-08T21:57:33.839Z,97890.81
2019-03-08T22:01:38.727Z,97886.27
2019-03-08T22:05:43.621Z,97871.66
2019-03-08T22:09:50.157Z,97868.34
2019-03-08T22:13:55.156Z,97869.75
2019-03-08T22:18:00.089Z,97863.23
2019-03-08T22:22:04.985Z,97861.41
2019-03-08T22:26:09.875Z,97853.63
2019-03-08T22:30:17.006Z,97850.98
2019-03-08T22:34:21.895Z,97839.25
2019-03-08T22:38:26.791Z,97841.83
2019-03-08T22:42:32.648Z,97830.09
2019-03-08T22:46:45.316Z,97829.20
2019-03-08T22:50:44.134Z,97817.50
2019-03-08T22:54:49.011Z,97809.80
2019-03-08T22:58:53.904Z,97811.62
2019-03-08T23:02:58.965Z,97806.85
2019-03-08T23:07:03.864Z,97801.16
2019-03-08T23:11:08.750Z,97797.66
2019-03-08T23:15:13.635Z,97778.44
2019-03-08T23:19:18.536Z,97773.67
2019-03-08T23:23:23.433Z,97771.73
2019-03-08T23:27:29.990Z,97759.75
2019-03-08T23:31:39.636Z,97762.09
2019-03-08T23:35:45.585Z,97764.36
2019-03-08T23:39:50.483Z,97749.28
2019-03-08T23:43:56.346Z,97755.88
2019-03-08T23:48:01.239Z,97746.01
2019-03-08T23:52:06.142Z,97753.34
2019-03-08T23:56:11.017Z,97753.13
